Data for 12/04/2010

Time Sea-Level Adjusted Pressure Absolute Pressure Temperature Relative Humidity Dew Point   
(mb) (inHg) (mb) (inHg) (C) (F) (%) (C) (F)
00:05 1025 30.27 854 25.22 -8 17.6 82 -10.5 13.1
00:10 1025 30.27 854 25.22 -8.1 17.4 82 -10.6 12.8
00:15 1025 30.27 854 25.22 -8.4 17 82 -10.8 12.5
00:20 1025 30.27 854 25.22 -8.6 16.5 83 -10.9 12.3
00:25 1025 30.27 854 25.22 -8.7 16.4 82 -11.3 11.7
00:30 1025 30.27 854 25.22 -8.8 16.2 82 -11.3 11.6
00:35 1025 30.27 854 25.22 -8.9 15.9 83 -11.3 11.6
00:40 1025 30.27 854 25.22 -9.1 15.5 83 -11.5 11.2
00:45 1025 30.27 854 25.22 -9.4 15.2 83 -11.7 10.9
00:50 1025 30.27 854 25.22 -9.4 15.1 83 -11.8 10.7
00:55 1025 30.27 854 25.22 -9.4 15 84 -11.7 11
01:00 1025 30.27 854 25.22 -9.6 14.8 87 -11.4 11.6
01:05 1025 30.27 854 25.22 -9.4 15.2 86 -11.3 11.7
01:10 1025 30.27 854 25.22 -9.4 15.1 85 -11.4 11.5
01:15 1025 30.27 854 25.22 -9.5 14.9 85 -11.6 11.2
01:20 1025 30.27 854 25.22 -9.5 15 84 -11.6 11.1
01:25 1025 30.27 854 25.22 -9.5 14.9 84 -11.6 11.1
01:30 1025 30.27 854 25.22 -9.5 15 83 -11.8 10.7
01:35 1025 30.27 854 25.22 -9.6 14.7 84 -11.9 10.6
01:40 1025 30.27 854 25.22 -9.5 14.8 83 -11.9 10.5
01:45 1025 30.27 854 25.22 -9.5 14.8 83 -11.9 10.5
01:50 1025 30.27 854 25.22 -9.5 14.8 81 -12.2 10.1
01:55 1025 30.27 854 25.22 -9.6 14.8 81 -12.2 10
02:00 1025 30.27 854 25.22 -9.8 14.3 83 -12.2 10
02:05 1025 30.27 854 25.22 -9.9 14.1 83 -12.3 9.8
02:10 1025 30.27 854 25.22 -9.8 14.4 88 -11.3 11.6
02:15 1025 30.27 854 25.22 -9.4 15 87 -11.2 11.8
02:20 1025 30.27 854 25.22 -9.5 14.9 87 -11.3 11.7
02:25 1025 30.27 854 25.22 -9.9 14.3 87 -11.6 11.2
02:30 1025 30.27 854 25.22 -10 14.1 89 -11.5 11.3
02:35 1025 30.27 854 25.22 -9.6 14.8 84 -11.8 10.8
02:40 1025 30.27 854 25.22 -9.5 15 86 -11.4 11.5
02:45 1025 30.27 854 25.22 -9.7 14.6 88 -11.3 11.7
02:50 1025 30.27 854 25.22 -9.8 14.4 87 -11.5 11.3
02:55 1025 30.27 854 25.22 -10 14 88 -11.7 11
03:00 1025 30.27 854 25.22 -10 14.1 88 -11.6 11.1
03:05 1025 30.27 854 25.22 -9.8 14.3 88 -11.4 11.4
03:10 1025 30.27 854 25.22 -9.7 14.6 87 -11.4 11.5
03:15 1025 30.27 854 25.22 -9.7 14.5 86 -11.6 11.1
03:20 1025 30.27 854 25.22 -10 14 88 -11.6 11.1
03:25 1025 30.27 854 25.22 -9.9 14.3 89 -11.4 11.5
03:30 1025 30.27 854 25.22 -9.6 14.7 86 -11.6 11.1
03:35 1025 30.27 854 25.22 -10.2 13.6 85 -12.2 10
03:40 1025 30.27 854 25.22 -10.4 13.3 86 -12.3 9.8
03:45 1025 30.27 854 25.22 -10.2 13.7 87 -12 10.4
03:50 1025 30.27 854 25.22 -10.2 13.6 89 -11.7 10.9
03:55 1025 30.27 854 25.22 -10 14 87 -11.8 10.8
04:00 1025 30.27 854 25.22 -9.9 14.3 87 -11.6 11
04:05 1025 30.27 854 25.22 -9.8 14.3 87 -11.7 11
04:10 1025 30.27 854 25.22 -9.7 14.5 85 -11.7 10.9
04:15 1025 30.27 854 25.22 -9.9 14.2 87 -11.7 11
04:20 1025 30.27 854 25.22 -9.9 14.3 86 -11.7 10.9
04:25 1025 30.27 854 25.22 -9.8 14.3 82 -12.4 9.7
04:30 1025 30.27 854 25.22 -10.2 13.7 82 -12.7 9.1
04:35 1025 30.27 854 25.22 -10.8 12.5 83 -13.2 8.2
04:40 1025 30.27 854 25.22 -11.3 11.6 87 -13.1 8.3
04:45 1025 30.27 854 25.22 -11.2 11.9 88 -12.7 9.1
04:50 1025 30.27 854 25.22 -11 12.2 90 -12.4 9.8
04:55 1025 30.27 854 25.22 -10.6 12.8 84 -12.8 8.9
05:00 1025 30.27 854 25.22 -11.1 12 84 -13.3 8
05:05 1024 30.24 854 25.22 -11.4 11.6 90 -12.7 9.1
05:10 1024 30.24 854 25.22 -10.6 12.9 89 -12.1 10.2
05:15 1024 30.24 854 25.22 -10.3 13.4 82 -12.8 8.9
05:20 1024 30.24 854 25.22 -10.5 13.2 84 -12.6 9.2
05:25 1024 30.24 854 25.22 -10 14.1 84 -12.2 10
05:30 1024 30.24 854 25.22 -9.9 14.2 84 -12.2 10.1
05:35 1024 30.24 854 25.22 -10.1 13.7 81 -12.7 9.1
05:40 1025 30.27 854 25.22 -10.5 13.1 85 -12.6 9.3
05:45 1025 30.27 854 25.22 -10.5 13.2 87 -12.3 9.9
05:50 1025 30.27 854 25.22 -10.6 13 86 -12.4 9.6
05:55 1025 30.27 854 25.22 -10.7 12.7 84 -12.9 8.8
06:00 1025 30.27 854 25.22 -11.2 11.9 84 -13.4 7.9
06:05 1025 30.27 854 25.22 -11.5 11.3 85 -13.5 7.7
06:10 1025 30.27 854 25.22 -11.5 11.3 84 -13.6 7.5
06:15 1025 30.27 854 25.22 -11.2 11.8 81 -13.9 7
06:20 1025 30.27 854 25.22 -11.7 10.9 89 -13.2 8.2
06:25 1025 30.27 854 25.22 -10.8 12.5 88 -12.5 9.6
06:30 1025 30.27 854 25.22 -10.6 13 84 -12.7 9.1
06:35 1025 30.27 854 25.22 -10.8 12.5 82 -13.4 7.9
06:40 1025 30.27 854 25.22 -10.9 12.4 83 -13.2 8.3
06:45 1025 30.27 854 25.22 -10.9 12.3 82 -13.4 7.9
06:50 1025 30.27 854 25.22 -11.4 11.5 82 -13.9 7
06:55 1025 30.27 854 25.22 -11.8 10.8 87 -13.5 7.6
07:00 1025 30.27 854 25.22 -11.5 11.4 89 -13 8.7
07:05 1025 30.27 854 25.22 -10.9 12.4 82 -13.4 7.9
07:10 1025 30.27 854 25.22 -11.1 12 83 -13.5 7.8
07:15 1025 30.27 854 25.22 -11.3 11.7 86 -13.2 8.2
07:20 1025 30.27 854 25.22 -11.2 11.8 85 -13.2 8.3
07:25 1025 30.27 854 25.22 -11.4 11.6 86 -13.2 8.2
07:30 1025 30.27 854 25.22 -11.4 11.5 88 -13.1 8.5
07:35 1025 30.27 854 25.22 -11.3 11.7 87 -13 8.6
07:40 1025 30.27 854 25.22 -11.3 11.6 87 -13 8.6
07:45 1025 30.27 854 25.22 -11.3 11.6 87 -13.1 8.4
07:50 1025 30.27 854 25.22 -11.7 11 90 -13.1 8.5
07:55 1025 30.27 854 25.22 -11.6 11.1 85 -13.6 7.5
08:00 1025 30.27 854 25.22 -11.9 10.7 86 -13.7 7.3
08:05 1025 30.27 854 25.22 -11.6 11.2 88 -13.2 8.3
08:10 1025 30.27 854 25.22 -11.3 11.7 87 -13 8.5
08:15 1025 30.27 854 25.22 -11.2 11.9 87 -12.9 8.8
08:20 1025 30.27 854 25.22 -11 12.1 87 -12.9 8.8
08:25 1025 30.27 854 25.22 -11.3 11.7 86 -13.2 8.3
08:30 1025 30.27 854 25.22 -11.7 10.9 87 -13.5 7.8
08:35 1025 30.27 854 25.22 -11.7 10.9 86 -13.6 7.6
08:40 1025 30.27 854 25.22 -11.7 11 86 -13.6 7.6
08:45 1025 30.27 854 25.22 -11.7 11 85 -13.7 7.3
08:50 1025 30.27 854 25.22 -11.8 10.7 86 -13.8 7.2
08:55 1025 30.27 854 25.22 -11.8 10.8 85 -13.8 7.1
09:00 1025 30.27 854 25.22 -11.5 11.2 86 -13.5 7.8
09:05 1025 30.27 854 25.22 -11.2 11.9 86 -13 8.5
09:10 1025 30.27 854 25.22 -11 12.2 85 -13.1 8.4
09:15 1025 30.27 854 25.22 -11 12.2 84 -13.2 8.3
09:20 1025 30.27 854 25.22 -11.1 12.1 84 -13.3 8.1
09:25 1025 30.27 854 25.22 -10.9 12.4 82 -13.4 8
09:30 1025 30.27 854 25.22 -11 12.3 82 -13.4 7.8
09:35 1025 30.27 854 25.22 -10.8 12.7 81 -13.4 7.9
09:40 1025 30.27 854 25.22 -10.5 13.2 81 -13.2 8.3
09:45 1025 30.27 854 25.22 -9.9 14.1 79 -13 8.6
09:50 1025 30.27 854 25.22 -9.4 15.1 76 -12.8 8.9
09:55 1025 30.27 854 25.22 -9 15.8 74 -12.8 9
10:00 1025 30.27 854 25.22 -9 15.9 75 -12.7 9.2
10:05 1025 30.27 854 25.22 -9.2 15.5 77 -12.5 9.5
10:10 1025 30.27 854 25.22 -8.6 16.5 74 -12.4 9.7
10:15 1025 30.27 854 25.22 -7.6 18.2 71 -12.1 10.2
10:20 1025 30.27 854 25.22 -6.7 19.9 68 -11.8 10.8
10:25 1025 30.27 854 25.22 -6.7 20 67 -11.9 10.7
10:30 1025 30.27 854 25.22 -6.7 19.9 69 -11.6 11.2
10:35 1025 30.27 854 25.22 -6.7 19.9 67 -11.9 10.6
10:40 1025 30.27 854 25.22 -6.8 19.7 70 -11.5 11.3
10:45 1025 30.27 854 25.22 -6.8 19.8 68 -11.7 11
10:50 1025 30.27 854 25.22 -6.4 20.4 67 -11.6 11.1
10:55 1025 30.27 854 25.22 -6.6 20.2 68 -11.5 11.3
11:00 1025 30.27 854 25.22 -6.9 19.5 69 -11.7 10.9
11:05 1025 30.27 854 25.22 -6.9 19.7 69 -11.7 10.9
11:10 1025 30.27 854 25.22 -6.3 20.7 65 -11.7 10.9
11:15 1025 30.27 854 25.22 -5.9 21.5 65 -11.5 11.3
11:20 1025 30.27 854 25.22 -5.9 21.4 65 -11.5 11.4
11:25 1025 30.27 854 25.22 -5.8 21.5 66 -11.2 11.9
11:30 1025 30.27 854 25.22 -5.4 22.4 64 -11 12.1
11:35 1025 30.27 854 25.22 -5.4 22.2 66 -10.8 12.5
11:40 1025 30.27 854 25.22 -5.2 22.7 65 -10.8 12.6
11:45 1025 30.27 854 25.22 -5.1 22.8 65 -10.7 12.8
11:50 1025 30.27 854 25.22 -5.6 22 65 -11.1 12
11:55 1025 30.27 854 25.22 -5.9 21.4 66 -11.3 11.7
12:00 1025 30.27 854 25.22 -5.2 22.6 62 -11.5 11.4
12:05 1025 30.27 854 25.22 -4.3 24.3 59 -11.1 12
12:10 1024 30.24 854 25.22 -4.3 24.3 63 -10.3 13.5
12:15 1024 30.24 854 25.22 -4.4 24.1 63 -10.5 13.1
12:20 1024 30.24 854 25.22 -4.5 23.8 65 -10.2 13.6
12:25 1024 30.24 854 25.22 -4.5 23.8 64 -10.3 13.5
12:30 1024 30.24 854 25.22 -4.5 24 65 -10.1 13.8
12:35 1024 30.24 853 25.19 -4.6 23.6 66 -10 14
12:40 1024 30.24 853 25.19 -4.6 23.6 67 -9.9 14.2
12:45 1024 30.24 853 25.19 -6 21.3 73 -10.1 13.8
12:50 1024 30.24 853 25.19 -6.6 20.1 74 -10.6 12.9
12:55 1024 30.24 853 25.19 -6.5 20.2 74 -10.5 13.2
13:00 1024 30.24 853 25.19 -6 21.2 71 -10.5 13.2
13:05 1024 30.24 853 25.19 -6.2 20.9 74 -10.2 13.7
13:10 1024 30.24 853 25.19 -6.5 20.3 73 -10.6 12.9
13:15 1024 30.24 853 25.19 -6.2 20.8 72 -10.4 13.3
13:20 1024 30.24 853 25.19 -5.5 22.1 69 -10.3 13.4
13:25 1024 30.24 853 25.19 -6 21.1 71 -10.4 13.2
13:30 1024 30.24 853 25.19 -6 21.2 71 -10.4 13.3
13:35 1024 30.24 853 25.19 -5.4 22.2 70 -10.1 13.7
13:40 1024 30.24 853 25.19 -5.7 21.7 70 -10.4 13.3
13:45 1024 30.24 853 25.19 -6.1 20.9 72 -10.5 13.2
13:50 1024 30.24 853 25.19 -6.3 20.7 71 -10.7 12.8
13:55 1024 30.24 853 25.19 -6.5 20.4 75 -10.2 13.6
14:00 1024 30.24 853 25.19 -6.6 20.2 74 -10.4 13.3
14:05 1024 30.24 853 25.19 -6.2 20.8 73 -10.4 13.3
14:10 1024 30.24 853 25.19 -5.9 21.5 71 -10.3 13.5
14:15 1024 30.24 853 25.19 -5.8 21.5 72 -10.2 13.7
14:20 1024 30.24 853 25.19 -6.1 21 72 -10.3 13.4
14:25 1024 30.24 853 25.19 -6.2 20.9 73 -10.3 13.4
14:30 1024 30.24 853 25.19 -6 21.2 71 -10.4 13.2
14:35 1024 30.24 853 25.19 -6.1 21.1 71 -10.5 13
14:40 1024 30.24 853 25.19 -6.5 20.3 73 -10.5 13.1
14:45 1024 30.24 853 25.19 -6.4 20.5 73 -10.4 13.2
14:50 1024 30.24 853 25.19 -6.1 21.1 71 -10.5 13.1
14:55 1024 30.24 853 25.19 -6.5 20.4 74 -10.4 13.2
15:00 1024 30.24 853 25.19 -6.5 20.4 74 -10.3 13.4
15:05 1024 30.24 853 25.19 -6.1 21 71 -10.6 12.9
15:10 1024 30.24 853 25.19 -6.5 20.4 74 -10.4 13.3
15:15 1024 30.24 853 25.19 -6.5 20.2 73 -10.6 12.9
15:20 1024 30.24 853 25.19 -6.5 20.2 73 -10.5 13
15:25 1024 30.24 853 25.19 -6.5 20.3 73 -10.6 12.9
15:30 1024 30.24 853 25.19 -6.5 20.2 72 -10.9 12.5
15:35 1024 30.24 853 25.19 -6.6 20.2 72 -10.9 12.4
15:40 1024 30.24 853 25.19 -6.8 19.8 71 -11.2 11.9
15:45 1024 30.24 853 25.19 -7 19.4 72 -11.3 11.7
15:50 1024 30.24 853 25.19 -7 19.3 72 -11.4 11.6
15:55 1024 30.24 853 25.19 -7.6 18.2 74 -11.6 11.1
16:00 1024 30.24 853 25.19 -8.2 17.3 76 -11.7 11
16:05 1024 30.24 853 25.19 -8.4 16.8 77 -11.7 10.9
16:10 1024 30.24 853 25.19 -8.7 16.4 78 -11.8 10.8
16:15 1024 30.24 853 25.19 -8.8 16.1 79 -11.8 10.7
16:20 1024 30.24 853 25.19 -8.9 16 80 -11.8 10.8
16:25 1024 30.24 853 25.19 -9 15.7 80 -11.9 10.5
16:30 1024 30.24 853 25.19 -9.2 15.5 81 -11.9 10.5
16:35 1024 30.24 853 25.19 -9.3 15.2 81 -12 10.4
16:40 1024 30.24 853 25.19 -9.4 15 82 -11.9 10.5
16:45 1024 30.24 853 25.19 -9.4 15.2 81 -12 10.3
16:50 1024 30.24 853 25.19 -9.5 15 81 -12.1 10.2
16:55 1024 30.24 853 25.19 -9.7 14.5 82 -12.2 10.1
17:00 1024 30.24 853 25.19 -9.8 14.3 83 -12.2 10.1
17:05 1024 30.24 853 25.19 -9.9 14.2 83 -12.2 10
17:10 1024 30.24 853 25.19 -10.1 13.9 84 -12.3 9.8
17:15 1024 30.24 853 25.19 -10.2 13.7 85 -12.3 9.9
17:20 1024 30.24 853 25.19 -10.1 13.8 85 -12.1 10.2
17:25 1024 30.24 854 25.22 -10.1 13.8 87 -11.9 10.5
17:30 1024 30.24 854 25.22 -10.3 13.5 88 -11.9 10.5
17:35 1024 30.24 854 25.22 -10.4 13.3 86 -12.3 9.8
17:40 1024 30.24 854 25.22 -10.8 12.5 87 -12.6 9.3
17:45 1024 30.24 854 25.22 -11.4 11.4 87 -13.3 8.1
17:50 1024 30.24 854 25.22 -11.9 10.6 89 -13.3 8
17:55 1025 30.27 854 25.22 -12.1 10.3 91 -13.3 8.1
18:00 1025 30.27 854 25.22 -12 10.5 93 -12.9 8.8
18:05 1025 30.27 854 25.22 -11.7 11 93 -12.6 9.2
18:10 1025 30.27 854 25.22 -11.8 10.8 93 -12.7 9.2
18:15 1025 30.27 854 25.22 -11.5 11.3 92 -12.5 9.5
18:20 1025 30.27 854 25.22 -11.5 11.3 89 -12.9 8.7
18:25 1025 30.27 854 25.22 -11.9 10.6 92 -13 8.7
18:30 1025 30.27 854 25.22 -11.9 10.6 90 -13.2 8.2
18:35 1025 30.27 854 25.22 -12.1 10.2 92 -13.1 8.4
18:40 1025 30.27 854 25.22 -12.1 10.2 93 -13.1 8.4
18:45 1025 30.27 854 25.22 -12.1 10.2 93 -13.1 8.5
18:50 1025 30.27 854 25.22 -12.2 10.1 93 -13 8.5
18:55 1025 30.27 854 25.22 -12 10.5 94 -12.8 9
19:00 1025 30.27 854 25.22 -11.8 10.8 93 -12.7 9.2
19:05 1025 30.27 854 25.22 -11.7 10.9 93 -12.7 9.2
19:10 1025 30.27 854 25.22 -11.8 10.8 93 -12.7 9.1
19:15 1025 30.27 854 25.22 -11.8 10.7 93 -12.8 8.9
19:20 1025 30.27 854 25.22 -11.9 10.6 92 -12.9 8.8
19:25 1025 30.27 854 25.22 -12.1 10.2 92 -13.2 8.3
19:30 1025 30.27 854 25.22 -12.3 9.8 91 -13.6 7.6
19:35 1025 30.27 854 25.22 -12.6 9.4 92 -13.7 7.4
19:40 1025 30.27 854 25.22 -12.5 9.6 92 -13.5 7.7
19:45 1025 30.27 854 25.22 -12.2 10 92 -13.3 8
19:50 1025 30.27 854 25.22 -12.1 10.3 92 -13.1 8.3
19:55 1025 30.27 854 25.22 -11.9 10.5 91 -13.1 8.5
20:00 1025 30.27 854 25.22 -11.7 11 91 -12.8 8.9
20:05 1025 30.27 854 25.22 -11.6 11.1 91 -12.8 8.9
20:10 1025 30.27 854 25.22 -11.7 10.9 91 -12.9 8.7
20:15 1025 30.27 854 25.22 -11.9 10.6 91 -13 8.6
20:20 1025 30.27 854 25.22 -12 10.3 93 -13 8.7
20:25 1025 30.27 854 25.22 -12 10.4 93 -13 8.7
20:30 1025 30.27 854 25.22 -12 10.5 93 -12.8 8.9
20:35 1025 30.27 854 25.22 -11.8 10.8 94 -12.6 9.3
20:40 1025 30.27 854 25.22 -11.8 10.8 93 -12.8 9
20:45 1025 30.27 854 25.22 -12.1 10.3 93 -12.9 8.7
20:50 1025 30.27 854 25.22 -12 10.4 94 -12.7 9.1
20:55 1025 30.27 854 25.22 -11.8 10.8 94 -12.5 9.5
21:00 1025 30.27 854 25.22 -11.6 11.1 93 -12.5 9.5
21:05 1025 30.27 854 25.22 -11.6 11.2 93 -12.5 9.4
21:10 1025 30.27 854 25.22 -11.8 10.9 94 -12.6 9.4
21:15 1025 30.27 854 25.22 -11.7 11 93 -12.6 9.4
21:20 1025 30.27 854 25.22 -11.6 11.1 93 -12.5 9.4
21:25 1025 30.27 854 25.22 -11.8 10.8 93 -12.7 9.1
21:30 1025 30.27 854 25.22 -11.9 10.6 93 -12.7 9.1
21:35 1025 30.27 854 25.22 -11.9 10.6 94 -12.7 9.2
21:40 1025 30.27 854 25.22 -11.8 10.7 93 -12.7 9.2
21:45 1025 30.27 854 25.22 -12.1 10.3 92 -13.2 8.3
21:50 1025 30.27 854 25.22 -12.7 9.2 93 -13.5 7.6
21:55 1025 30.27 854 25.22 -12.2 10.1 95 -12.9 8.9
22:00 1025 30.27 854 25.22 -11.9 10.6 94 -12.7 9.2
22:05 1025 30.27 854 25.22 -11.9 10.6 94 -12.6 9.2
22:10 1025 30.27 854 25.22 -11.6 11.1 95 -12.3 9.8
22:15 1025 30.27 854 25.22 -11.5 11.4 94 -12.2 10
22:20 1025 30.27 854 25.22 -11.4 11.5 94 -12.2 10
22:25 1025 30.27 855 25.25 -11.7 10.9 93 -12.6 9.2
22:30 1025 30.27 855 25.25 -11.8 10.8 92 -12.8 9
22:35 1025 30.27 855 25.25 -11.8 10.7 92 -12.9 8.7
22:40 1025 30.27 855 25.25 -12.3 9.9 90 -13.7 7.4
22:45 1025 30.27 855 25.25 -13 8.6 89 -14.4 6.1
22:50 1025 30.27 855 25.25 -13.5 7.7 92 -14.5 5.9
22:55 1026 30.3 855 25.25 -13 8.6 95 -13.7 7.4
23:00 1026 30.3 855 25.25 -12.4 9.7 95 -13 8.7
23:05 1026 30.3 855 25.25 -12.1 10.2 93 -13 8.5
23:10 1026 30.3 855 25.25 -12.3 9.9 93 -13.2 8.2
23:15 1026 30.3 855 25.25 -12.5 9.5 93 -13.4 7.8
23:20 1026 30.3 855 25.25 -12.3 9.8 95 -13 8.5
23:25 1026 30.3 855 25.25 -12.1 10.3 94 -12.8 8.9
23:30 1026 30.3 855 25.25 -12 10.5 94 -12.7 9.1
23:35 1026 30.3 855 25.25 -11.9 10.5 92 -12.9 8.7
23:40 1026 30.3 855 25.25 -12.1 10.2 93 -13 8.6
23:45 1026 30.3 855 25.25 -12 10.4 94 -12.8 8.9
23:50 1026 30.3 855 25.25 -12.1 10.3 92 -13.1 8.3
23:55 1026 30.3 855 25.25 -12.3 9.8 93 -13.3 8.1
24:00 1026 30.3 855 25.25 -12.5 9.6 91 -13.6 7.5